Time;durP1;ratioP1;P1;durP2;ratioP2;P2;SDS_P1;SDS_P2;PMS_P1;PMS_P2;Temp;Humidity;BMP_temperature;BMP_pressure;BME280_temperature;BME280_humidity;BME280_pressure;Samples;Min_cycle;Max_cycle;Signal;HPM_P1;HPM_P2
2023/06/14 00:01:47;;;;;;;0.20;0.20;;;17.60;55.30;;;;;;4969966;28;20038;-64
2023/06/14 00:04:13;;;;;;;0.10;0.10;;;17.50;55.50;;;;;;4972488;28;20051;-64
2023/06/14 00:06:39;;;;;;;0.00;0.00;;;17.50;55.50;;;;;;4981012;28;20102;-64
2023/06/14 00:09:08;;;;;;;0.00;0.00;;;17.50;55.30;;;;;;4978493;28;20030;-64
2023/06/14 00:11:34;;;;;;;0.00;0.00;;;17.50;55.60;;;;;;4991661;28;20046;-64
2023/06/14 00:13:59;;;;;;;0.00;0.00;;;17.50;55.60;;;;;;4962640;28;20043;-64
2023/06/14 00:16:25;;;;;;;0.00;0.00;;;17.40;56.10;;;;;;4984890;28;20096;-65
2023/06/14 00:18:53;;;;;;;0.00;0.00;;;17.40;55.70;;;;;;4973427;28;20399;-65
2023/06/14 00:21:19;;;;;;;0.00;0.00;;;17.30;56.00;;;;;;4980318;28;20043;-65
2023/06/14 00:23:45;;;;;;;0.00;0.00;;;17.30;56.10;;;;;;4982285;28;20042;-64
2023/06/14 00:26:11;;;;;;;0.00;0.00;;;17.30;56.40;;;;;;4939255;28;20058;-64
2023/06/14 00:28:36;;;;;;;0.05;0.05;;;17.20;56.60;;;;;;4979373;28;20046;-64
2023/06/14 00:31:02;;;;;;;1.05;0.65;;;17.20;56.70;;;;;;4992625;28;20455;-65
2023/06/14 00:33:28;;;;;;;4.13;0.63;;;17.20;56.40;;;;;;4981831;28;20053;-65
2023/06/14 00:35:56;;;;;;;0.00;0.00;;;17.20;56.70;;;;;;4971982;28;20061;-64
2023/06/14 00:38:21;;;;;;;0.00;0.00;;;17.10;57.00;;;;;;4973228;28;20039;-64
2023/06/14 00:40:47;;;;;;;0.00;0.00;;;17.10;57.40;;;;;;4977631;28;20046;-64
2023/06/14 00:43:13;;;;;;;0.00;0.00;;;17.10;57.60;;;;;;4958041;28;20134;-65
2023/06/14 00:45:38;;;;;;;0.15;0.15;;;17.10;57.90;;;;;;4992028;28;20081;-64
2023/06/14 00:48:06;;;;;;;0.03;0.03;;;17.10;57.90;;;;;;4985887;28;20464;-64
2023/06/14 00:50:32;;;;;;;0.00;0.00;;;17.10;57.70;;;;;;4976961;28;20054;-64
2023/06/14 00:53:01;;;;;;;0.00;0.00;;;17.00;58.30;;;;;;4975419;28;20205;-65
2023/06/14 00:55:28;;;;;;;0.03;0.03;;;17.00;58.30;;;;;;4978435;28;20090;-64
2023/06/14 00:57:55;;;;;;;0.00;0.00;;;16.90;58.60;;;;;;4972649;28;20039;-64
2023/06/14 01:00:21;;;;;;;0.00;0.00;;;16.90;58.50;;;;;;4984287;28;20050;-65
2023/06/14 01:02:47;;;;;;;0.00;0.00;;;16.90;58.60;;;;;;4974134;28;20042;-64
2023/06/14 01:05:14;;;;;;;0.00;0.00;;;16.80;58.80;;;;;;4972508;28;20082;-64
2023/06/14 01:07:47;;;;;;;0.05;0.05;;;16.80;58.90;;;;;;4973256;28;20074;-65
2023/06/14 01:10:35;;;;;;;0.00;0.00;;;16.80;59.10;;;;;;4964216;28;20150;-64
2023/06/14 01:13:33;;;;;;;0.00;0.00;;;16.70;59.30;;;;;;4991785;28;20685;-64
2023/06/14 01:15:59;;;;;;;0.00;0.00;;;16.70;59.10;;;;;;4989678;28;20053;-65
2023/06/14 01:18:25;;;;;;;0.05;0.05;;;16.70;59.90;;;;;;4988402;28;20091;-64
2023/06/14 01:20:54;;;;;;;0.00;0.00;;;16.60;59.80;;;;;;4973493;28;20066;-64
2023/06/14 01:23:22;;;;;;;0.00;0.00;;;16.60;60.00;;;;;;4990316;28;20050;-64
2023/06/14 01:25:52;;;;;;;0.00;0.00;;;16.60;60.60;;;;;;4989541;28;20050;-64
2023/06/14 01:28:19;;;;;;;0.00;0.00;;;16.60;60.40;;;;;;4972341;28;20090;-64
2023/06/14 01:30:48;;;;;;;0.00;0.00;;;16.50;60.50;;;;;;4965415;28;20058;-64
2023/06/14 01:33:19;;;;;;;0.00;0.00;;;16.50;60.40;;;;;;4974328;28;20050;-64
2023/06/14 01:35:48;;;;;;;0.15;0.15;;;16.50;61.10;;;;;;4982946;28;20050;-64
2023/06/14 01:38:15;;;;;;;0.00;0.00;;;16.40;61.40;;;;;;4956314;28;20042;-64
2023/06/14 01:40:44;;;;;;;0.05;0.05;;;16.30;61.60;;;;;;4976583;28;20086;-64
2023/06/14 01:43:15;;;;;;;0.00;0.00;;;16.30;61.60;;;;;;4979243;28;20125;-64
2023/06/14 01:45:42;;;;;;;0.00;0.00;;;16.20;61.80;;;;;;4982552;28;20050;-65
2023/06/14 01:48:08;;;;;;;0.00;0.00;;;16.30;61.40;;;;;;4971543;28;20385;-64
2023/06/14 01:50:34;;;;;;;0.00;0.00;;;16.20;62.40;;;;;;4956768;28;20098;-64
2023/06/14 01:53:00;;;;;;;0.00;0.00;;;16.20;62.00;;;;;;4987862;28;20070;-64
2023/06/14 01:55:25;;;;;;;0.00;0.00;;;16.10;62.40;;;;;;4958360;28;20068;-64
2023/06/14 01:57:54;;;;;;;0.40;0.40;;;16.10;62.10;;;;;;4984560;28;20054;-64
2023/06/14 02:00:21;;;;;;;0.10;0.10;;;16.10;62.10;;;;;;4974174;28;20038;-64
2023/06/14 02:02:47;;;;;;;0.00;0.00;;;16.10;62.50;;;;;;4973186;28;20612;-64
2023/06/14 02:05:12;;;;;;;0.00;0.00;;;16.10;62.90;;;;;;4989043;28;20043;-64
2023/06/14 02:07:38;;;;;;;0.00;0.00;;;16.00;62.30;;;;;;4980372;28;20719;-64
2023/06/14 02:10:06;;;;;;;0.00;0.00;;;16.00;63.10;;;;;;4989808;28;20054;-65
2023/06/14 02:12:31;;;;;;;0.00;0.00;;;16.00;62.90;;;;;;4976084;28;20115;-64
2023/06/14 02:14:57;;;;;;;0.00;0.00;;;16.00;62.60;;;;;;4987071;28;20038;-64
2023/06/14 02:17:24;;;;;;;0.00;0.00;;;16.00;63.30;;;;;;4970993;28;20038;-65
2023/06/14 02:19:50;;;;;;;0.00;0.00;;;15.90;63.20;;;;;;4982710;28;20723;-64
2023/06/14 02:22:16;;;;;;;0.40;0.40;;;15.80;63.00;;;;;;4989315;28;20054;-64
2023/06/14 02:24:42;;;;;;;0.00;0.00;;;15.80;63.40;;;;;;4989976;28;20038;-65
2023/06/14 02:27:10;;;;;;;0.00;0.00;;;15.80;63.30;;;;;;4990808;28;20069;-64
2023/06/14 02:29:36;;;;;;;0.00;0.00;;;15.80;64.60;;;;;;4981182;28;20050;-64
2023/06/14 02:32:02;;;;;;;0.00;0.00;;;15.70;63.90;;;;;;4970163;28;20046;-64
2023/06/14 02:34:28;;;;;;;0.00;0.00;;;15.70;64.30;;;;;;4972253;28;20427;-64
2023/06/14 02:36:55;;;;;;;0.00;0.00;;;15.70;64.50;;;;;;4981428;28;20505;-64
2023/06/14 02:39:23;;;;;;;0.00;0.00;;;15.70;64.60;;;;;;4972174;28;20051;-64
2023/06/14 02:41:49;;;;;;;0.00;0.00;;;15.70;65.40;;;;;;4979322;28;20069;-65
2023/06/14 02:44:17;;;;;;;0.00;0.00;;;15.60;64.90;;;;;;4988879;28;20129;-64
2023/06/14 02:46:43;;;;;;;0.00;0.00;;;15.60;65.00;;;;;;4988694;28;20178;-64
2023/06/14 02:49:09;;;;;;;1.45;0.40;;;15.60;66.00;;;;;;4988057;28;20055;-64
2023/06/14 02:51:35;;;;;;;0.00;0.00;;;15.60;65.70;;;;;;4965743;28;20039;-65
2023/06/14 02:54:01;;;;;;;0.00;0.00;;;15.60;66.10;;;;;;4981752;28;20729;-64
2023/06/14 02:56:27;;;;;;;0.00;0.00;;;15.60;65.40;;;;;;4987631;28;20051;-64
2023/06/14 02:58:53;;;;;;;0.00;0.00;;;15.60;66.00;;;;;;4989732;28;20189;-64
2023/06/14 03:01:20;;;;;;;0.00;0.00;;;15.60;66.60;;;;;;4983356;28;20133;-64
2023/06/14 03:03:46;;;;;;;0.00;0.00;;;15.60;65.70;;;;;;4971572;28;20048;-64
2023/06/14 03:06:13;;;;;;;0.00;0.00;;;15.60;66.00;;;;;;4989694;28;20065;-64
2023/06/14 03:08:41;;;;;;;0.00;0.00;;;15.60;65.90;;;;;;4970152;28;20043;-64
2023/06/14 03:11:07;;;;;;;0.00;0.00;;;15.60;66.50;;;;;;4979855;28;20113;-64
2023/06/14 03:13:34;;;;;;;0.00;0.00;;;15.60;66.00;;;;;;4970385;28;20101;-64
2023/06/14 03:16:03;;;;;;;0.00;0.00;;;15.50;66.50;;;;;;4969879;28;20095;-64
2023/06/14 03:18:30;;;;;;;0.00;0.00;;;15.50;66.50;;;;;;4972723;28;20039;-64
2023/06/14 03:20:57;;;;;;;0.00;0.00;;;15.50;66.40;;;;;;4982460;28;20053;-64
2023/06/14 03:23:25;;;;;;;0.00;0.00;;;15.50;66.60;;;;;;4972964;28;20051;-64
2023/06/14 03:25:51;;;;;;;0.00;0.00;;;15.50;66.80;;;;;;4937833;28;20062;-64
2023/06/14 03:28:17;;;;;;;0.00;0.00;;;15.50;66.80;;;;;;4979705;28;20519;-64
2023/06/14 03:30:43;;;;;;;0.00;0.00;;;15.50;67.20;;;;;;4988195;28;20053;-65
2023/06/14 03:33:09;;;;;;;0.35;0.35;;;15.50;66.80;;;;;;4988597;28;20042;-65
2023/06/14 03:35:35;;;;;;;0.00;0.00;;;15.50;66.50;;;;;;4988581;28;20046;-64
2023/06/14 03:38:00;;;;;;;0.00;0.00;;;15.50;67.00;;;;;;4983354;28;20057;-64
2023/06/14 03:40:27;;;;;;;0.00;0.00;;;15.50;66.80;;;;;;4945638;28;20058;-64
2023/06/14 03:42:54;;;;;;;2.08;0.43;;;15.40;67.10;;;;;;4990342;28;20056;-64
2023/06/14 03:45:19;;;;;;;0.00;0.00;;;15.50;66.90;;;;;;4988410;28;20034;-64
2023/06/14 03:47:45;;;;;;;0.00;0.00;;;15.40;67.30;;;;;;4973585;28;20046;-64
2023/06/14 03:50:11;;;;;;;0.00;0.00;;;15.40;67.20;;;;;;4985351;28;20042;-66
2023/06/14 03:52:36;;;;;;;0.00;0.00;;;15.40;67.60;;;;;;4980419;28;20038;-64
2023/06/14 03:55:02;;;;;;;0.00;0.00;;;15.40;67.50;;;;;;4974648;28;20047;-64
2023/06/14 03:57:29;;;;;;;0.00;0.00;;;15.40;67.60;;;;;;4986872;28;20045;-64
2023/06/14 03:59:55;;;;;;;0.00;0.00;;;15.40;67.20;;;;;;4981475;28;20433;-65
2023/06/14 04:02:20;;;;;;;0.08;0.08;;;15.50;67.70;;;;;;4984783;28;20038;-65
2023/06/14 04:04:48;;;;;;;0.00;0.00;;;15.40;67.60;;;;;;4958197;28;20126;-65
2023/06/14 04:07:14;;;;;;;0.00;0.00;;;15.50;68.40;;;;;;4980501;28;20449;-64
2023/06/14 04:09:40;;;;;;;0.00;0.00;;;15.50;68.00;;;;;;4987228;28;20472;-64
2023/06/14 04:12:08;;;;;;;0.00;0.00;;;15.50;68.10;;;;;;4939790;28;20043;-64
2023/06/14 04:14:34;;;;;;;0.00;0.00;;;15.50;68.30;;;;;;4973301;28;20047;-64
2023/06/14 04:17:00;;;;;;;0.00;0.00;;;15.60;68.10;;;;;;4988640;28;20049;-64
2023/06/14 04:19:26;;;;;;;0.00;0.00;;;15.60;69.40;;;;;;4974685;28;20061;-64
2023/06/14 04:21:52;;;;;;;0.00;0.00;;;15.60;69.20;;;;;;4973014;28;20038;-64
2023/06/14 04:24:17;;;;;;;0.00;0.00;;;15.60;68.70;;;;;;4974127;28;20473;-65
2023/06/14 04:26:44;;;;;;;0.00;0.00;;;15.70;69.20;;;;;;4985765;28;20491;-64
2023/06/14 04:29:14;;;;;;;0.00;0.00;;;15.70;68.60;;;;;;4992193;28;20085;-65
2023/06/14 04:31:40;;;;;;;0.00;0.00;;;15.80;69.70;;;;;;4977149;28;20121;-64
2023/06/14 04:34:05;;;;;;;0.00;0.00;;;15.80;69.30;;;;;;4979009;28;20069;-64
2023/06/14 04:36:36;;;;;;;0.00;0.00;;;15.90;69.40;;;;;;4972521;28;20429;-64
2023/06/14 04:39:03;;;;;;;0.00;0.00;;;15.80;70.50;;;;;;4980347;28;20055;-65
2023/06/14 04:41:32;;;;;;;0.10;0.10;;;15.90;69.80;;;;;;4978308;28;20076;-65
2023/06/14 04:44:01;;;;;;;0.00;0.00;;;16.00;70.10;;;;;;4984660;28;20050;-65
2023/06/14 04:46:31;;;;;;;0.00;0.00;;;15.90;69.20;;;;;;4974852;28;20057;-64
2023/06/14 04:48:57;;;;;;;0.00;0.00;;;16.00;69.90;;;;;;4981316;28;20081;-64
2023/06/14 04:51:29;;;;;;;0.00;0.00;;;16.00;69.10;;;;;;4984336;28;20058;-64
2023/06/14 04:53:59;;;;;;;1.38;0.80;;;16.00;68.90;;;;;;4981965;28;20054;-65
2023/06/14 04:56:25;;;;;;;0.00;0.00;;;16.10;69.10;;;;;;4984163;28;20163;-65
2023/06/14 04:58:52;;;;;;;0.00;0.00;;;16.10;69.00;;;;;;4986454;28;20537;-64
2023/06/14 05:01:18;;;;;;;0.10;0.10;;;16.10;69.00;;;;;;4986129;28;20504;-65
2023/06/14 05:03:45;;;;;;;0.00;0.00;;;16.10;69.10;;;;;;4987653;28;20035;-64
2023/06/14 05:06:11;;;;;;;0.00;0.00;;;16.20;68.80;;;;;;4976148;28;20057;-64
2023/06/14 05:08:37;;;;;;;0.00;0.00;;;16.20;69.40;;;;;;4972149;28;20046;-65
2023/06/14 05:11:03;;;;;;;0.10;0.10;;;16.30;68.90;;;;;;4988722;28;20419;-64
2023/06/14 05:13:28;;;;;;;0.00;0.00;;;16.30;69.20;;;;;;4991498;28;20101;-64
2023/06/14 05:15:54;;;;;;;0.00;0.00;;;16.40;69.00;;;;;;4972296;28;20054;-64
2023/06/14 05:18:20;;;;;;;0.00;0.00;;;16.40;69.50;;;;;;4983805;28;20459;-65
2023/06/14 05:20:45;;;;;;;0.00;0.00;;;16.50;69.90;;;;;;4972403;28;20047;-65
2023/06/14 05:23:14;;;;;;;0.00;0.00;;;16.60;69.70;;;;;;4984668;28;20495;-65
2023/06/14 05:25:44;;;;;;;0.00;0.00;;;16.70;69.80;;;;;;4976937;28;20041;-66
2023/06/14 05:28:09;;;;;;;0.00;0.00;;;16.70;69.10;;;;;;4985590;28;20082;-66
2023/06/14 05:30:35;;;;;;;0.00;0.00;;;16.80;69.30;;;;;;4979322;28;20082;-65
2023/06/14 05:33:01;;;;;;;0.00;0.00;;;16.90;69.00;;;;;;4987029;28;20097;-65
2023/06/14 05:35:27;;;;;;;0.00;0.00;;;17.00;69.20;;;;;;4991627;28;20070;-65
2023/06/14 05:37:53;;;;;;;0.00;0.00;;;17.00;68.60;;;;;;4991465;28;20133;-65
2023/06/14 05:40:19;;;;;;;0.00;0.00;;;17.10;68.80;;;;;;4990526;28;20794;-65
2023/06/14 05:42:45;;;;;;;0.00;0.00;;;17.20;68.90;;;;;;4989627;28;20053;-65
2023/06/14 05:45:11;;;;;;;0.00;0.00;;;17.20;68.40;;;;;;4953249;28;20038;-67
2023/06/14 05:47:37;;;;;;;0.00;0.00;;;17.30;67.70;;;;;;4983989;28;20046;-65
2023/06/14 05:50:03;;;;;;;0.00;0.00;;;17.30;67.70;;;;;;4992505;28;20040;-65
2023/06/14 05:52:29;;;;;;;0.08;0.08;;;17.40;67.30;;;;;;4992578;28;20053;-66
2023/06/14 05:54:55;;;;;;;0.00;0.00;;;17.50;66.90;;;;;;4988886;28;20520;-65
2023/06/14 05:57:21;;;;;;;0.00;0.00;;;17.50;67.10;;;;;;4993301;28;20092;-65
2023/06/14 05:59:46;;;;;;;0.00;0.00;;;17.50;67.00;;;;;;5010167;28;20125;-66
2023/06/14 06:02:12;;;;;;;0.00;0.00;;;17.60;66.80;;;;;;4999765;28;20086;-65
2023/06/14 06:04:38;;;;;;;0.43;0.43;;;17.70;66.60;;;;;;4966142;28;20050;-64
2023/06/14 06:07:03;;;;;;;0.00;0.00;;;18.00;66.30;;;;;;4986730;28;20411;-65
2023/06/14 06:09:29;;;;;;;0.00;0.00;;;18.10;65.90;;;;;;4966348;28;20698;-65
2023/06/14 06:11:55;;;;;;;0.00;0.00;;;18.20;65.70;;;;;;4987905;28;20054;-63
2023/06/14 06:14:21;;;;;;;0.00;0.00;;;18.30;65.20;;;;;;4970199;28;20402;-63
2023/06/14 06:16:46;;;;;;;0.00;0.00;;;18.50;65.20;;;;;;4984402;28;20054;-63
2023/06/14 06:19:12;;;;;;;0.00;0.00;;;18.50;64.80;;;;;;4960821;28;20043;-63
2023/06/14 06:21:37;;;;;;;0.10;0.10;;;18.60;64.60;;;;;;4976216;28;20054;-63
2023/06/14 06:24:05;;;;;;;0.00;0.00;;;18.90;70.20;;;;;;4970541;28;20066;-63
2023/06/14 06:26:31;;;;;;;0.10;0.10;;;19.20;67.60;;;;;;4977232;28;20093;-73
2023/06/14 06:28:57;;;;;;;0.00;0.00;;;19.30;64.70;;;;;;4988329;28;20089;-72
2023/06/14 06:31:23;;;;;;;0.00;0.00;;;19.40;64.10;;;;;;4972763;28;20562;-71
2023/06/14 06:33:50;;;;;;;0.65;0.65;;;19.50;63.50;;;;;;4948349;28;20046;-71
2023/06/14 06:36:15;;;;;;;0.00;0.00;;;19.50;63.20;;;;;;4953331;28;20039;-71
2023/06/14 06:38:42;;;;;;;0.00;0.00;;;19.60;62.90;;;;;;4953686;28;20166;-63
2023/06/14 06:41:07;;;;;;;0.00;0.00;;;19.60;62.20;;;;;;4953458;28;20496;-63
2023/06/14 06:43:33;;;;;;;0.00;0.00;;;19.60;62.20;;;;;;4981230;28;20038;-63
2023/06/14 06:45:58;;;;;;;0.00;0.00;;;19.60;62.20;;;;;;4980016;28;20043;-66
2023/06/14 06:48:24;;;;;;;0.00;0.00;;;19.60;62.10;;;;;;4947197;28;20089;-66
2023/06/14 06:50:51;;;;;;;0.00;0.00;;;19.70;62.10;;;;;;4989698;28;20085;-66
2023/06/14 06:53:18;;;;;;;0.00;0.00;;;19.70;62.00;;;;;;4986950;28;20050;-63
2023/06/14 06:55:44;;;;;;;0.00;0.00;;;19.70;61.80;;;;;;4970434;28;20066;-64
2023/06/14 06:58:09;;;;;;;0.00;0.00;;;19.80;61.30;;;;;;4989148;28;20423;-63
2023/06/14 07:00:35;;;;;;;0.30;0.30;;;19.90;61.30;;;;;;4972145;28;20046;-63
2023/06/14 07:03:01;;;;;;;0.00;0.00;;;19.90;61.60;;;;;;4989657;28;20052;-64
2023/06/14 07:05:27;;;;;;;0.00;0.00;;;20.00;61.00;;;;;;4988806;28;20050;-64
2023/06/14 07:07:52;;;;;;;0.00;0.00;;;20.00;60.80;;;;;;4989563;28;20045;-64
2023/06/14 07:10:18;;;;;;;0.00;0.00;;;20.00;60.60;;;;;;4989010;28;20118;-65
2023/06/14 07:12:44;;;;;;;0.00;0.00;;;20.00;60.60;;;;;;4988584;28;20465;-64
2023/06/14 07:15:10;;;;;;;0.00;0.00;;;20.00;59.30;;;;;;4994925;28;20046;-64
2023/06/14 07:17:36;;;;;;;0.03;0.03;;;20.00;59.90;;;;;;4985053;28;20058;-64
2023/06/14 07:20:07;;;;;;;0.00;0.00;;;20.00;59.30;;;;;;4981494;28;20130;-64
2023/06/14 07:22:33;;;;;;;0.00;0.00;;;20.10;59.30;;;;;;4970501;28;20087;-64
2023/06/14 07:24:58;;;;;;;0.00;0.00;;;20.10;58.60;;;;;;4974445;28;20570;-64
2023/06/14 07:27:24;;;;;;;0.00;0.00;;;20.10;58.10;;;;;;4992541;28;20050;-64
2023/06/14 07:29:49;;;;;;;0.00;0.00;;;20.10;58.40;;;;;;4983478;28;20047;-64
2023/06/14 07:32:15;;;;;;;0.00;0.00;;;20.20;58.10;;;;;;4973921;28;20043;-64
2023/06/14 07:34:40;;;;;;;0.00;0.00;;;20.20;58.20;;;;;;4974162;28;20078;-64
2023/06/14 07:37:06;;;;;;;0.00;0.00;;;20.30;58.40;;;;;;4974053;28;20057;-65
2023/06/14 07:39:31;;;;;;;0.00;0.00;;;20.30;57.30;;;;;;4986427;28;20467;-65
2023/06/14 07:41:57;;;;;;;0.00;0.00;;;20.40;57.40;;;;;;4973868;28;20055;-64
2023/06/14 07:44:23;;;;;;;0.00;0.00;;;20.40;57.50;;;;;;4976255;28;20684;-64
2023/06/14 07:46:49;;;;;;;0.00;0.00;;;20.50;57.00;;;;;;4975423;28;20049;-64
2023/06/14 07:49:15;;;;;;;0.00;0.00;;;20.50;57.20;;;;;;4986098;28;20149;-64
2023/06/14 07:51:41;;;;;;;0.00;0.00;;;20.60;56.80;;;;;;4974028;28;20070;-64
2023/06/14 07:54:08;;;;;;;0.00;0.00;;;20.60;57.30;;;;;;4956374;28;20050;-64
2023/06/14 07:56:34;;;;;;;0.10;0.10;;;20.70;56.60;;;;;;4979867;28;20133;-64
2023/06/14 07:59:00;;;;;;;0.00;0.00;;;20.70;55.90;;;;;;4993032;28;20145;-64
2023/06/14 08:01:27;;;;;;;0.00;0.00;;;20.80;55.30;;;;;;4977580;28;20137;-63
2023/06/14 08:03:53;;;;;;;0.00;0.00;;;20.80;56.50;;;;;;4981206;28;20522;-63
2023/06/14 08:06:18;;;;;;;0.17;0.17;;;20.90;56.90;;;;;;4992008;28;20042;-64
2023/06/14 08:08:44;;;;;;;0.00;0.00;;;21.00;56.40;;;;;;4980797;28;20541;-64
2023/06/14 08:11:10;;;;;;;0.00;0.00;;;21.00;55.40;;;;;;4973152;28;20498;-63
2023/06/14 08:13:35;;;;;;;0.00;0.00;;;21.10;55.20;;;;;;4972770;28;20042;-64
2023/06/14 08:16:01;;;;;;;0.00;0.00;;;21.10;55.00;;;;;;4979843;28;20046;-64
2023/06/14 08:18:27;;;;;;;0.00;0.00;;;21.20;55.00;;;;;;4974740;28;20408;-63
2023/06/14 08:20:54;;;;;;;0.00;0.00;;;21.20;54.70;;;;;;4978032;28;20074;-65
2023/06/14 08:23:21;;;;;;;0.00;0.00;;;21.30;56.20;;;;;;4985288;28;20058;-65
2023/06/14 08:25:46;;;;;;;0.00;0.00;;;21.50;55.00;;;;;;4957218;28;20057;-65
2023/06/14 08:28:12;;;;;;;0.10;0.10;;;21.50;54.60;;;;;;4988846;28;20046;-65
2023/06/14 08:30:38;;;;;;;0.00;0.00;;;21.60;52.80;;;;;;4990888;28;20034;-65
2023/06/14 08:33:03;;;;;;;0.00;0.00;;;21.70;53.00;;;;;;4991909;28;20050;-65
2023/06/14 08:35:29;;;;;;;0.00;0.00;;;21.70;52.90;;;;;;4992239;28;20042;-65
2023/06/14 08:37:55;;;;;;;0.00;0.00;;;21.80;52.70;;;;;;4978677;28;20137;-65
2023/06/14 08:40:23;;;;;;;0.30;0.28;;;21.80;53.50;;;;;;4972456;28;20058;-66
2023/06/14 08:42:53;;;;;;;0.00;0.00;;;21.90;53.60;;;;;;4969753;28;20050;-65
2023/06/14 08:45:21;;;;;;;0.00;0.00;;;22.00;53.90;;;;;;4992026;28;20136;-66
2023/06/14 08:47:51;;;;;;;0.10;0.10;;;22.00;53.70;;;;;;4991613;28;20058;-65
2023/06/14 08:50:20;;;;;;;0.00;0.00;;;22.10;53.90;;;;;;4990383;28;20135;-65
2023/06/14 08:52:52;;;;;;;0.20;0.20;;;22.10;52.90;;;;;;4973832;28;20054;-65
2023/06/14 08:55:19;;;;;;;0.00;0.00;;;22.10;53.00;;;;;;4991770;28;20563;-65
2023/06/14 08:57:49;;;;;;;0.98;0.20;;;22.20;53.90;;;;;;4959053;28;20049;-65
2023/06/14 09:00:15;;;;;;;0.00;0.00;;;22.30;53.50;;;;;;4978624;28;20159;-65
2023/06/14 09:02:43;;;;;;;0.00;0.00;;;22.30;52.30;;;;;;4992058;28;20970;-65
2023/06/14 09:05:10;;;;;;;0.00;0.00;;;22.30;52.60;;;;;;4991986;28;20496;-66
2023/06/14 09:07:38;;;;;;;0.00;0.00;;;22.30;52.60;;;;;;4990833;28;20065;-65
2023/06/14 09:10:22;;;;;;;0.00;0.00;;;22.40;52.00;;;;;;4989849;28;20129;-69
2023/06/14 09:12:48;;;;;;;0.00;0.00;;;22.40;53.10;;;;;;4988378;28;20065;-65
2023/06/14 09:15:14;;;;;;;0.13;0.13;;;22.50;51.80;;;;;;4971949;28;20039;-65
2023/06/14 09:17:40;;;;;;;0.00;0.00;;;22.50;52.00;;;;;;4971807;28;20518;-66
2023/06/14 09:20:10;;;;;;;0.00;0.00;;;22.50;52.00;;;;;;4975919;28;20050;-66
2023/06/14 09:22:39;;;;;;;0.00;0.00;;;22.60;50.00;;;;;;4973182;28;20047;-65
2023/06/14 09:25:06;;;;;;;0.00;0.00;;;22.60;50.90;;;;;;4954630;28;20129;-66
2023/06/14 09:27:32;;;;;;;0.00;0.00;;;22.60;50.40;;;;;;4982617;28;20042;-65
2023/06/14 09:29:58;;;;;;;0.00;0.00;;;22.70;51.00;;;;;;4970681;28;20046;-66
2023/06/14 09:32:24;;;;;;;0.10;0.10;;;22.80;50.20;;;;;;4971231;28;20049;-66
2023/06/14 09:34:50;;;;;;;0.00;0.00;;;22.80;50.70;;;;;;4974770;28;20046;-66
2023/06/14 09:37:32;;;;;;;0.00;0.00;;;22.90;50.80;;;;;;4970128;28;20423;-66
2023/06/14 09:39:58;;;;;;;0.00;0.00;;;23.00;51.00;;;;;;4938028;28;20512;-66
2023/06/14 09:42:28;;;;;;;0.00;0.00;;;23.00;49.60;;;;;;4976150;28;20676;-67
2023/06/14 09:44:55;;;;;;;0.00;0.00;;;23.00;48.80;;;;;;4989452;28;20094;-65
2023/06/14 09:47:22;;;;;;;0.00;0.00;;;23.00;50.30;;;;;;4990239;28;20035;-65
2023/06/14 09:49:49;;;;;;;0.00;0.00;;;23.10;50.10;;;;;;4990622;28;20451;-65
2023/06/14 09:52:19;;;;;;;0.00;0.00;;;23.10;48.60;;;;;;4986979;28;20035;-65
2023/06/14 09:54:46;;;;;;;0.00;0.00;;;23.10;48.90;;;;;;4978957;28;20074;-65
2023/06/14 09:57:14;;;;;;;0.00;0.00;;;23.20;49.00;;;;;;4979679;28;20049;-65
2023/06/14 09:59:42;;;;;;;0.00;0.00;;;23.20;49.30;;;;;;4977537;28;20039;-65
2023/06/14 10:02:16;;;;;;;0.00;0.00;;;23.30;47.70;;;;;;4982267;28;20034;-65
2023/06/14 10:04:50;;;;;;;0.00;0.00;;;23.30;47.00;;;;;;4963562;28;20384;-65
2023/06/14 10:07:19;;;;;;;0.00;0.00;;;23.40;48.50;;;;;;4978471;28;20089;-65
2023/06/14 10:09:49;;;;;;;0.00;0.00;;;23.40;47.60;;;;;;4980116;28;20062;-65
2023/06/14 10:12:20;;;;;;;0.60;0.52;;;23.50;48.10;;;;;;4983615;28;20054;-65
2023/06/14 10:14:47;;;;;;;;;;;23.60;48.90;;;;;;4983020;28;20057;-65
2023/06/14 10:17:21;;;;;;;0.00;0.00;;;23.70;47.80;;;;;;4989640;28;19922;-65
2023/06/14 10:19:58;;;;;;;0.03;0.03;;;23.80;48.20;;;;;;4990342;28;20046;-65
2023/06/14 10:22:37;;;;;;;0.00;0.00;;;23.80;47.50;;;;;;4964498;28;20411;-65
2023/06/14 10:25:11;;;;;;;0.00;0.00;;;23.90;48.10;;;;;;4987518;28;20050;-65
2023/06/14 10:27:37;;;;;;;0.00;0.00;;;23.90;46.80;;;;;;4983681;28;20058;-65
2023/06/14 10:30:05;;;;;;;0.00;0.00;;;24.00;46.80;;;;;;4977756;28;20050;-65
2023/06/14 10:32:31;;;;;;;0.00;0.00;;;24.00;46.70;;;;;;4975193;28;20046;-65
2023/06/14 10:35:05;;;;;;;0.05;0.05;;;24.10;47.10;;;;;;4971859;28;20069;-66
2023/06/14 10:37:31;;;;;;;0.00;0.00;;;24.20;46.10;;;;;;4976251;28;20093;-65
2023/06/14 10:39:56;;;;;;;6.22;3.20;;;24.10;44.40;;;;;;4988783;28;20847;-66
2023/06/14 10:42:27;;;;;;;0.00;0.00;;;24.10;45.50;;;;;;4982890;28;20057;-66
2023/06/14 10:44:56;;;;;;;0.00;0.00;;;24.20;46.50;;;;;;4966681;28;20536;-65
2023/06/14 10:47:28;;;;;;;0.00;0.00;;;24.20;45.60;;;;;;4976852;28;20086;-65
2023/06/14 10:49:54;;;;;;;;;;;24.20;46.00;;;;;;4962624;28;20625;-65
2023/06/14 10:52:28;;;;;;;0.00;0.00;;;24.30;45.70;;;;;;4971663;28;20012;-65
2023/06/14 10:55:04;;;;;;;0.00;0.00;;;24.30;45.80;;;;;;4969035;28;20082;-65
2023/06/14 10:57:33;;;;;;;1.20;0.20;;;24.40;44.80;;;;;;4983689;28;20250;-66
2023/06/14 11:00:00;;;;;;;0.20;0.20;;;24.40;46.50;;;;;;4979774;28;20125;-66
2023/06/14 11:03:04;;;;;;;0.00;0.00;;;24.50;45.90;;;;;;4980682;28;20877;-66
2023/06/14 11:05:30;;;;;;;0.00;0.00;;;24.50;44.70;;;;;;4974414;28;20046;-66
2023/06/14 11:08:26;;;;;;;0.00;0.00;;;24.50;45.30;;;;;;4982513;28;20061;-66
2023/06/14 11:10:56;;;;;;;0.00;0.00;;;24.60;44.60;;;;;;4980771;28;20064;-66
2023/06/14 11:13:25;;;;;;;0.00;0.00;;;24.70;44.80;;;;;;4964790;28;20054;-66
2023/06/14 11:15:52;;;;;;;0.00;0.00;;;24.80;45.50;;;;;;4975265;28;20061;-66
2023/06/14 11:18:18;;;;;;;0.00;0.00;;;24.80;44.60;;;;;;4978167;28;20049;-66
2023/06/14 11:20:46;;;;;;;0.00;0.00;;;24.90;43.80;;;;;;4974784;28;20046;-66
2023/06/14 11:23:12;;;;;;;0.00;0.00;;;24.90;44.80;;;;;;4984796;28;20398;-66
2023/06/14 11:25:37;;;;;;;0.00;0.00;;;25.00;45.10;;;;;;4974796;28;20153;-66
2023/06/14 11:28:03;;;;;;;0.00;0.00;;;25.10;45.10;;;;;;4974908;28;20050;-66
2023/06/14 11:30:29;;;;;;;0.00;0.00;;;25.10;45.10;;;;;;4975237;28;20081;-65
2023/06/14 11:32:55;;;;;;;0.00;0.00;;;25.10;44.10;;;;;;4976169;28;20062;-66
2023/06/14 11:35:25;;;;;;;0.00;0.00;;;25.10;43.30;;;;;;4977289;28;20031;-66
2023/06/14 11:37:56;;;;;;;0.00;0.00;;;25.10;43.30;;;;;;4981145;28;20496;-66
2023/06/14 11:40:24;;;;;;;0.00;0.00;;;25.00;44.60;;;;;;4984602;28;20129;-66
2023/06/14 11:42:50;;;;;;;0.00;0.00;;;25.00;44.20;;;;;;4979646;28;20110;-66
2023/06/14 11:45:15;;;;;;;0.00;0.00;;;25.00;43.90;;;;;;4974725;28;20054;-66
2023/06/14 11:47:41;;;;;;;0.00;0.00;;;25.00;44.80;;;;;;4985679;28;20046;-66
2023/06/14 11:50:08;;;;;;;0.00;0.00;;;25.00;44.40;;;;;;4987483;28;20038;-67
2023/06/14 11:52:36;;;;;;;0.00;0.00;;;24.90;43.60;;;;;;4986571;28;20102;-66
2023/06/14 11:55:05;;;;;;;0.00;0.00;;;25.00;45.10;;;;;;4980047;28;20078;-66
2023/06/14 11:57:33;;;;;;;0.10;0.10;;;25.00;44.30;;;;;;4978728;28;20134;-66
2023/06/14 11:59:59;;;;;;;0.00;0.00;;;25.20;44.50;;;;;;4980556;28;20046;-67
2023/06/14 12:02:27;;;;;;;0.10;0.10;;;25.30;45.30;;;;;;4981394;28;20053;-67
2023/06/14 12:04:53;;;;;;;0.00;0.00;;;25.40;44.00;;;;;;4978933;28;20046;-66
2023/06/14 12:07:21;;;;;;;0.00;0.00;;;25.50;43.90;;;;;;4984731;28;20117;-66
2023/06/14 12:09:59;;;;;;;0.00;0.00;;;25.50;43.20;;;;;;4980760;28;20038;-66
2023/06/14 12:12:26;;;;;;;0.00;0.00;;;25.50;43.30;;;;;;4980758;28;20558;-66
2023/06/14 12:14:52;;;;;;;0.00;0.00;;;25.50;43.20;;;;;;4980305;28;20054;-65
2023/06/14 12:17:18;;;;;;;0.00;0.00;;;25.60;43.50;;;;;;4986309;28;20050;-65
2023/06/14 12:19:46;;;;;;;0.00;0.00;;;25.70;42.50;;;;;;4986783;28;20038;-65
2023/06/14 12:22:13;;;;;;;0.00;0.00;;;26.00;43.10;;;;;;4989831;28;20049;-65
2023/06/14 12:24:39;;;;;;;0.00;0.00;;;26.10;43.10;;;;;;4996738;28;20062;-66
2023/06/14 12:27:05;;;;;;;0.00;0.00;;;26.20;43.10;;;;;;4997598;28;20047;-66
2023/06/14 12:29:31;;;;;;;0.00;0.00;;;26.20;42.70;;;;;;4993265;28;20125;-66
2023/06/14 12:31:57;;;;;;;0.10;0.10;;;26.10;40.90;;;;;;4994058;28;20049;-65
2023/06/14 12:34:23;;;;;;;0.00;0.00;;;26.00;42.10;;;;;;4995776;28;21196;-65
2023/06/14 12:36:58;;;;;;;0.98;0.43;;;26.00;43.20;;;;;;4975900;28;20042;-64
2023/06/14 12:39:24;;;;;;;0.00;0.00;;;26.10;42.90;;;;;;4997050;28;20837;-66
2023/06/14 12:41:50;;;;;;;0.00;0.00;;;26.20;43.20;;;;;;4996443;28;20042;-65
2023/06/14 12:44:16;;;;;;;0.10;0.10;;;26.40;43.20;;;;;;4999639;28;20073;-65
2023/06/14 12:46:42;;;;;;;0.00;0.00;;;26.30;40.20;;;;;;4998830;28;20137;-65
2023/06/14 12:49:09;;;;;;;0.00;0.00;;;26.20;41.00;;;;;;4993258;28;20122;-65